EIN626 EIDW-ENGM
Flight info
| Callsign | EIN626 |
|---|---|
| Flight time | 1h 44m |
| Altitude | 37000 |
| Route | ROTEV3J ROTEV DCT GOTNA DCT ALOTI DCT PIPEX M609 RIPAM |
| Aircraft | A21N/M-SDE2E3FGHIRWXY/LB1 |
Departure
| Time | 2026-05-08 08:00 |
|---|---|
| Airport | Dublin Airport (EIDW) |
Arrival
| Time | 2026-05-08 09:44 |
|---|---|
| Airport | Oslo-Gardermoen International Airport (ENGM) |
| Time | Latitude | Longitude | Altitude | Speed | Heading |
|---|---|---|---|---|---|
| 2026-05-08 07:23 | 53.42375 | -6.24162 | 216 ft | 0 kts | 315° |
| 2026-05-08 07:49 | 53.42373 | -6.24158 | 189 ft | 3 kts | 315° |
| 2026-05-08 07:49 | 53.42355 | -6.24129 | 218 ft | 2 kts | 315° |
| 2026-05-08 07:49 | 53.42340 | -6.24102 | 216 ft | 4 kts | 301° |
| 2026-05-08 07:49 | 53.42335 | -6.24069 | 216 ft | 4 kts | 236° |
| 2026-05-08 07:50 | 53.42350 | -6.24042 | 216 ft | 1 kts | 224° |
| 2026-05-08 07:52 | 53.42344 | -6.24051 | 216 ft | 2 kts | 225° |
| 2026-05-08 07:52 | 53.42326 | -6.24083 | 216 ft | 5 kts | 226° |
| 2026-05-08 07:53 | 53.42287 | -6.24116 | 220 ft | 8 kts | 200° |
| 2026-05-08 07:53 | 53.42228 | -6.24152 | 218 ft | 10 kts | 209° |
| 2026-05-08 07:53 | 53.42169 | -6.24238 | 220 ft | 13 kts | 231° |
| 2026-05-08 07:53 | 53.42162 | -6.24397 | 223 ft | 15 kts | 277° |
| 2026-05-08 07:54 | 53.42177 | -6.24585 | 224 ft | 17 kts | 275° |
| 2026-05-08 07:54 | 53.42228 | -6.24768 | 222 ft | 19 kts | 340° |
| 2026-05-08 07:54 | 53.42358 | -6.24849 | 220 ft | 20 kts | 338° |
| 2026-05-08 07:54 | 53.42491 | -6.24946 | 218 ft | 21 kts | 334° |
| 2026-05-08 07:55 | 53.42629 | -6.25053 | 220 ft | 22 kts | 336° |
| 2026-05-08 07:55 | 53.42761 | -6.25197 | 221 ft | 23 kts | 319° |
| 2026-05-08 07:55 | 53.42908 | -6.25324 | 218 ft | 25 kts | 336° |
| 2026-05-08 07:55 | 53.43062 | -6.25437 | 220 ft | 18 kts | 337° |
| 2026-05-08 07:56 | 53.43182 | -6.25523 | 219 ft | 20 kts | 336° |
| 2026-05-08 07:56 | 53.43314 | -6.25619 | 222 ft | 20 kts | 336° |
| 2026-05-08 07:56 | 53.43397 | -6.25576 | 217 ft | 18 kts | 79° |
| 2026-05-08 07:56 | 53.43396 | -6.25360 | 216 ft | 20 kts | 97° |
| 2026-05-08 07:57 | 53.43382 | -6.25119 | 218 ft | 22 kts | 94° |
| 2026-05-08 07:57 | 53.43369 | -6.24854 | 217 ft | 24 kts | 96° |
| 2026-05-08 07:57 | 53.43357 | -6.24649 | 221 ft | 16 kts | 95° |
| 2026-05-08 07:57 | 53.43346 | -6.24446 | 217 ft | 19 kts | 95° |
| 2026-05-08 07:58 | 53.43333 | -6.24218 | 216 ft | 21 kts | 95° |
| 2026-05-08 07:58 | 53.43320 | -6.23985 | 216 ft | 14 kts | 96° |
| 2026-05-08 07:58 | 53.43349 | -6.23860 | 220 ft | 14 kts | 18° |
| 2026-05-08 07:58 | 53.43451 | -6.23845 | 221 ft | 12 kts | 2° |
| 2026-05-08 07:59 | 53.43490 | -6.23922 | 214 ft | 11 kts | 272° |
| 2026-05-08 07:59 | 53.43497 | -6.24093 | 216 ft | 28 kts | 275° |
| 2026-05-08 07:59 | 53.43540 | -6.24847 | 218 ft | 99 kts | 276° |
| 2026-05-08 07:59 | 53.43623 | -6.26357 | 220 ft | 154 kts | 276° |
| 2026-05-08 08:00 | 53.43722 | -6.28108 | 753 ft | 150 kts | 276° |
| 2026-05-08 08:00 | 53.43886 | -6.29849 | 1212 ft | 154 kts | 297° |
| 2026-05-08 08:00 | 53.44676 | -6.31036 | 1711 ft | 157 kts | 328° |
| 2026-05-08 08:00 | 53.45421 | -6.32400 | 2171 ft | 166 kts | 302° |
| 2026-05-08 08:01 | 53.46135 | -6.34016 | 2684 ft | 181 kts | 315° |
| 2026-05-08 08:01 | 53.47274 | -6.35113 | 3344 ft | 200 kts | 346° |
| 2026-05-08 08:01 | 53.48728 | -6.35214 | 4039 ft | 219 kts | 2° |
| 2026-05-08 08:01 | 53.50280 | -6.35085 | 5018 ft | 226 kts | 2° |
| 2026-05-08 08:02 | 53.51347 | -6.35001 | 5720 ft | 229 kts | 2° |
| 2026-05-08 08:02 | 53.52958 | -6.34836 | 6750 ft | 236 kts | 6° |
| 2026-05-08 08:02 | 53.54677 | -6.34421 | 7329 ft | 262 kts | 8° |
| 2026-05-08 08:02 | 53.56547 | -6.33927 | 7970 ft | 281 kts | 8° |
| 2026-05-08 08:03 | 53.58573 | -6.33394 | 8668 ft | 290 kts | 8° |
| 2026-05-08 08:03 | 53.60581 | -6.32872 | 9006 ft | 293 kts | 8° |
| 2026-05-08 08:03 | 53.62603 | -6.32349 | 9070 ft | 294 kts | 8° |
| 2026-05-08 08:03 | 53.64629 | -6.31826 | 9064 ft | 294 kts | 8° |
| 2026-05-08 08:04 | 53.66647 | -6.31265 | 9049 ft | 294 kts | 11° |
| 2026-05-08 08:04 | 53.68628 | -6.30419 | 9572 ft | 295 kts | 15° |
| 2026-05-08 08:04 | 53.70631 | -6.29503 | 10529 ft | 300 kts | 14° |
| 2026-05-08 08:04 | 53.72696 | -6.28559 | 11187 ft | 319 kts | 14° |
| 2026-05-08 08:05 | 53.74922 | -6.27545 | 11590 ft | 343 kts | 15° |
| 2026-05-08 08:05 | 53.77224 | -6.26077 | 12054 ft | 362 kts | 23° |
| 2026-05-08 08:05 | 53.79548 | -6.24328 | 12882 ft | 369 kts | 23° |
| 2026-05-08 08:05 | 53.81937 | -6.22509 | 13782 ft | 374 kts | 23° |
| 2026-05-08 08:06 | 53.84322 | -6.20704 | 14559 ft | 379 kts | 22° |
| 2026-05-08 08:06 | 53.86717 | -6.18893 | 15267 ft | 385 kts | 22° |
| 2026-05-08 08:06 | 53.89213 | -6.17006 | 16020 ft | 390 kts | 22° |
| 2026-05-08 08:06 | 53.91708 | -6.15116 | 16754 ft | 395 kts | 22° |
| 2026-05-08 08:07 | 53.94230 | -6.13195 | 17469 ft | 400 kts | 22° |
| 2026-05-08 08:07 | 53.96788 | -6.11247 | 18174 ft | 405 kts | 22° |
| 2026-05-08 08:07 | 53.99377 | -6.09271 | 18802 ft | 410 kts | 22° |
| 2026-05-08 08:07 | 54.01992 | -6.07273 | 19409 ft | 414 kts | 22° |
| 2026-05-08 08:08 | 54.04617 | -6.05190 | 19990 ft | 419 kts | 24° |
| 2026-05-08 08:08 | 54.07258 | -6.03040 | 20578 ft | 423 kts | 24° |
| 2026-05-08 08:08 | 54.09922 | -6.00859 | 21181 ft | 427 kts | 24° |
| 2026-05-08 08:08 | 54.12613 | -5.98654 | 21703 ft | 432 kts | 24° |
| 2026-05-08 08:09 | 54.15338 | -5.96422 | 22258 ft | 437 kts | 24° |
| 2026-05-08 08:09 | 54.18087 | -5.94157 | 22823 ft | 441 kts | 24° |
| 2026-05-08 08:09 | 54.20861 | -5.91864 | 23397 ft | 444 kts | 23° |
| 2026-05-08 08:09 | 54.23657 | -5.89556 | 23882 ft | 448 kts | 23° |
| 2026-05-08 08:10 | 54.26477 | -5.87225 | 24350 ft | 452 kts | 23° |
| 2026-05-08 08:10 | 54.29319 | -5.84880 | 24843 ft | 455 kts | 23° |
| 2026-05-08 08:10 | 54.32183 | -5.82518 | 25321 ft | 458 kts | 22° |
| 2026-05-08 08:10 | 54.35065 | -5.80148 | 25790 ft | 461 kts | 22° |
| 2026-05-08 08:11 | 54.37969 | -5.77754 | 26251 ft | 465 kts | 22° |
| 2026-05-08 08:11 | 54.40894 | -5.75332 | 26656 ft | 469 kts | 22° |
| 2026-05-08 08:11 | 54.43842 | -5.72879 | 27084 ft | 472 kts | 22° |
| 2026-05-08 08:11 | 54.46805 | -5.70415 | 27508 ft | 475 kts | 22° |
| 2026-05-08 08:12 | 54.49782 | -5.67929 | 27916 ft | 478 kts | 22° |
| 2026-05-08 08:12 | 54.52783 | -5.65419 | 28320 ft | 480 kts | 22° |
| 2026-05-08 08:12 | 54.55795 | -5.62896 | 28727 ft | 484 kts | 22° |
| 2026-05-08 08:12 | 54.58708 | -5.59913 | 29103 ft | 492 kts | 33° |
| 2026-05-08 08:13 | 54.61216 | -5.55849 | 29473 ft | 500 kts | 48° |
| 2026-05-08 08:13 | 54.63338 | -5.51066 | 29891 ft | 503 kts | 52° |
| 2026-05-08 08:13 | 54.65403 | -5.46167 | 30232 ft | 506 kts | 52° |
| 2026-05-08 08:13 | 54.67475 | -5.41265 | 30610 ft | 506 kts | 52° |
| 2026-05-08 08:14 | 54.69550 | -5.36383 | 31139 ft | 502 kts | 52° |
| 2026-05-08 08:14 | 54.71618 | -5.31538 | 31581 ft | 500 kts | 51° |
| 2026-05-08 08:14 | 54.73683 | -5.26700 | 31963 ft | 500 kts | 51° |
| 2026-05-08 08:14 | 54.75748 | -5.21855 | 32336 ft | 500 kts | 51° |
| 2026-05-08 08:15 | 54.77809 | -5.17001 | 32699 ft | 500 kts | 51° |
| 2026-05-08 08:15 | 54.79867 | -5.12142 | 33070 ft | 500 kts | 51° |
| 2026-05-08 08:15 | 54.81922 | -5.07280 | 33433 ft | 500 kts | 51° |
| 2026-05-08 08:15 | 54.83974 | -5.02416 | 33787 ft | 500 kts | 51° |
| 2026-05-08 08:16 | 54.86026 | -4.97546 | 34112 ft | 499 kts | 51° |
| 2026-05-08 08:16 | 54.88076 | -4.92683 | 34408 ft | 499 kts | 51° |
| 2026-05-08 08:16 | 54.90116 | -4.87824 | 34724 ft | 497 kts | 51° |
| 2026-05-08 08:16 | 54.92146 | -4.82976 | 35179 ft | 494 kts | 52° |
| 2026-05-08 08:17 | 54.94164 | -4.78152 | 35468 ft | 493 kts | 52° |
| 2026-05-08 08:17 | 54.96173 | -4.73337 | 35737 ft | 492 kts | 52° |
| 2026-05-08 08:17 | 54.98185 | -4.68515 | 36003 ft | 491 kts | 52° |
| 2026-05-08 08:17 | 55.00191 | -4.63706 | 36269 ft | 490 kts | 52° |
| 2026-05-08 08:18 | 55.02192 | -4.58897 | 36523 ft | 490 kts | 53° |
| 2026-05-08 08:18 | 55.04184 | -4.54094 | 36777 ft | 489 kts | 53° |
| 2026-05-08 08:18 | 55.06170 | -4.49283 | 37012 ft | 489 kts | 53° |
| 2026-05-08 08:19 | 55.10133 | -4.39672 | 37063 ft | 487 kts | 53° |
| 2026-05-08 08:19 | 55.14074 | -4.30075 | 37039 ft | 486 kts | 53° |
| 2026-05-08 08:20 | 55.18002 | -4.20455 | 37034 ft | 486 kts | 53° |
| 2026-05-08 08:20 | 55.21923 | -4.10826 | 37044 ft | 486 kts | 53° |
| 2026-05-08 08:21 | 55.25841 | -4.01168 | 37037 ft | 486 kts | 53° |
| 2026-05-08 08:21 | 55.29751 | -3.91492 | 37016 ft | 486 kts | 53° |
| 2026-05-08 08:22 | 55.33652 | -3.81807 | 37031 ft | 485 kts | 53° |
| 2026-05-08 08:22 | 55.37537 | -3.72124 | 37028 ft | 485 kts | 53° |
| 2026-05-08 08:23 | 55.41412 | -3.62427 | 37028 ft | 485 kts | 54° |
| 2026-05-08 08:23 | 55.45280 | -3.52699 | 37032 ft | 485 kts | 54° |
| 2026-05-08 08:24 | 55.49144 | -3.42955 | 37049 ft | 486 kts | 54° |
| 2026-05-08 08:24 | 55.52932 | -3.33367 | 37019 ft | 486 kts | 54° |
| 2026-05-08 08:25 | 55.56779 | -3.23605 | 37031 ft | 483 kts | 54° |
| 2026-05-08 08:25 | 55.60604 | -3.13838 | 37034 ft | 483 kts | 54° |
| 2026-05-08 08:26 | 55.64422 | -3.04052 | 37027 ft | 483 kts | 54° |
| 2026-05-08 08:26 | 55.68229 | -2.94242 | 37031 ft | 483 kts | 54° |
| 2026-05-08 08:27 | 55.72032 | -2.84414 | 37042 ft | 483 kts | 55° |
| 2026-05-08 08:27 | 55.75822 | -2.74581 | 37046 ft | 481 kts | 55° |
| 2026-05-08 08:28 | 55.79588 | -2.64770 | 37042 ft | 481 kts | 55° |
| 2026-05-08 08:28 | 55.83353 | -2.54937 | 37041 ft | 481 kts | 56° |
| 2026-05-08 08:29 | 55.87107 | -2.45081 | 37050 ft | 481 kts | 56° |
| 2026-05-08 08:29 | 55.90854 | -2.35205 | 37046 ft | 481 kts | 56° |
| 2026-05-08 08:30 | 55.94619 | -2.25244 | 37045 ft | 481 kts | 56° |
| 2026-05-08 08:30 | 56.00208 | -2.10356 | 37048 ft | 481 kts | 56° |
| 2026-05-08 08:31 | 56.03927 | -2.00414 | 37061 ft | 481 kts | 56° |
| 2026-05-08 08:31 | 56.07639 | -1.90453 | 37063 ft | 481 kts | 56° |
| 2026-05-08 08:32 | 56.11342 | -1.80463 | 37063 ft | 481 kts | 56° |
| 2026-05-08 08:32 | 56.15036 | -1.70461 | 37046 ft | 481 kts | 56° |
| 2026-05-08 08:33 | 56.18711 | -1.60471 | 37055 ft | 478 kts | 57° |
| 2026-05-08 08:33 | 56.22369 | -1.50485 | 37065 ft | 479 kts | 57° |
| 2026-05-08 08:34 | 56.25400 | -1.42166 | 37068 ft | 479 kts | 57° |
| 2026-05-08 08:34 | 56.29043 | -1.32145 | 37071 ft | 479 kts | 57° |
| 2026-05-08 08:35 | 56.32689 | -1.22104 | 37070 ft | 479 kts | 57° |
| 2026-05-08 08:35 | 56.36328 | -1.12026 | 37056 ft | 478 kts | 57° |
| 2026-05-08 08:36 | 56.39933 | -1.01990 | 37069 ft | 476 kts | 57° |
| 2026-05-08 08:36 | 56.43525 | -0.91948 | 37072 ft | 476 kts | 58° |
| 2026-05-08 08:37 | 56.47112 | -0.81878 | 37070 ft | 476 kts | 58° |
| 2026-05-08 08:37 | 56.50689 | -0.71794 | 37071 ft | 476 kts | 58° |
| 2026-05-08 08:38 | 56.54257 | -0.61686 | 37070 ft | 476 kts | 58° |
| 2026-05-08 08:38 | 56.57817 | -0.51563 | 37090 ft | 476 kts | 58° |
| 2026-05-08 08:39 | 56.61372 | -0.41412 | 37085 ft | 477 kts | 58° |
| 2026-05-08 08:39 | 56.64922 | -0.31232 | 37074 ft | 477 kts | 58° |
| 2026-05-08 08:40 | 56.68489 | -0.20960 | 37076 ft | 477 kts | 58° |
| 2026-05-08 08:40 | 56.72025 | -0.10744 | 37078 ft | 477 kts | 58° |
| 2026-05-08 08:41 | 56.75550 | -0.00507 | 37061 ft | 477 kts | 58° |
| 2026-05-08 08:41 | 56.79051 | 0.09710 | 37070 ft | 475 kts | 59° |
| 2026-05-08 08:42 | 56.82544 | 0.19938 | 37079 ft | 475 kts | 59° |
| 2026-05-08 08:42 | 56.86024 | 0.30182 | 37091 ft | 475 kts | 59° |
| 2026-05-08 08:43 | 56.89503 | 0.40458 | 37085 ft | 475 kts | 59° |
| 2026-05-08 08:43 | 56.92970 | 0.50743 | 37088 ft | 474 kts | 59° |
| 2026-05-08 08:44 | 56.96425 | 0.61035 | 37071 ft | 474 kts | 59° |
| 2026-05-08 08:44 | 56.99857 | 0.71308 | 37091 ft | 472 kts | 59° |
| 2026-05-08 08:45 | 57.03281 | 0.81597 | 37092 ft | 472 kts | 59° |
| 2026-05-08 08:45 | 57.06696 | 0.91905 | 37091 ft | 472 kts | 59° |
| 2026-05-08 08:46 | 57.10103 | 1.02231 | 37101 ft | 472 kts | 59° |
| 2026-05-08 08:46 | 57.13504 | 1.12579 | 37107 ft | 473 kts | 60° |
| 2026-05-08 08:47 | 57.16901 | 1.22960 | 37095 ft | 472 kts | 60° |
| 2026-05-08 08:47 | 57.20273 | 1.33313 | 37104 ft | 471 kts | 60° |
| 2026-05-08 08:48 | 57.23632 | 1.43692 | 37115 ft | 471 kts | 60° |
| 2026-05-08 08:48 | 57.26985 | 1.54083 | 37110 ft | 471 kts | 60° |
| 2026-05-08 08:49 | 57.30327 | 1.64493 | 37112 ft | 471 kts | 60° |
| 2026-05-08 08:49 | 57.33664 | 1.74914 | 37120 ft | 471 kts | 60° |
| 2026-05-08 08:50 | 57.36986 | 1.85349 | 37126 ft | 469 kts | 60° |
| 2026-05-08 08:50 | 57.40297 | 1.95783 | 37125 ft | 470 kts | 61° |
| 2026-05-08 08:51 | 57.43600 | 2.06245 | 37121 ft | 470 kts | 61° |
| 2026-05-08 08:51 | 57.46892 | 2.16727 | 37119 ft | 470 kts | 61° |
| 2026-05-08 08:52 | 57.50178 | 2.27228 | 37118 ft | 470 kts | 61° |
| 2026-05-08 08:52 | 57.53458 | 2.37744 | 37115 ft | 470 kts | 61° |
| 2026-05-08 08:53 | 57.56721 | 2.48263 | 37111 ft | 468 kts | 61° |
| 2026-05-08 08:53 | 57.59973 | 2.58784 | 37115 ft | 468 kts | 61° |
| 2026-05-08 08:54 | 57.63213 | 2.69317 | 37136 ft | 468 kts | 62° |
| 2026-05-08 08:54 | 57.66450 | 2.79885 | 37129 ft | 469 kts | 62° |
| 2026-05-08 08:55 | 57.69681 | 2.90480 | 37154 ft | 469 kts | 62° |
| 2026-05-08 08:55 | 57.72899 | 3.01093 | 37161 ft | 469 kts | 62° |
| 2026-05-08 08:56 | 57.76130 | 3.11788 | 37146 ft | 468 kts | 62° |
| 2026-05-08 08:56 | 57.79329 | 3.22423 | 37154 ft | 468 kts | 62° |
| 2026-05-08 08:57 | 57.82514 | 3.33072 | 37163 ft | 468 kts | 62° |
| 2026-05-08 08:57 | 57.85692 | 3.43742 | 37191 ft | 468 kts | 62° |
| 2026-05-08 08:58 | 57.88858 | 3.54434 | 37177 ft | 469 kts | 63° |
| 2026-05-08 08:58 | 57.91682 | 3.65445 | 37172 ft | 467 kts | 71° |
| 2026-05-08 08:59 | 57.93943 | 3.76875 | 37162 ft | 465 kts | 72° |
| 2026-05-08 08:59 | 57.96202 | 3.88380 | 37188 ft | 466 kts | 72° |
| 2026-05-08 09:00 | 57.98443 | 3.99822 | 37196 ft | 466 kts | 72° |
| 2026-05-08 09:00 | 58.00671 | 4.11287 | 37196 ft | 466 kts | 73° |
| 2026-05-08 09:01 | 58.02888 | 4.22765 | 37206 ft | 465 kts | 73° |
| 2026-05-08 09:01 | 58.05098 | 4.34237 | 37194 ft | 464 kts | 73° |
| 2026-05-08 09:02 | 58.07289 | 4.45677 | 37208 ft | 463 kts | 73° |
| 2026-05-08 09:02 | 58.09466 | 4.57128 | 37210 ft | 463 kts | 73° |
| 2026-05-08 09:03 | 58.11634 | 4.68592 | 37228 ft | 463 kts | 73° |
| 2026-05-08 09:03 | 58.13796 | 4.80091 | 37220 ft | 465 kts | 73° |
| 2026-05-08 09:04 | 58.15952 | 4.91635 | 37219 ft | 465 kts | 73° |
| 2026-05-08 09:04 | 58.18093 | 5.03165 | 37216 ft | 463 kts | 73° |
| 2026-05-08 09:05 | 58.20222 | 5.14692 | 37221 ft | 463 kts | 74° |
| 2026-05-08 09:05 | 58.22339 | 5.26233 | 37229 ft | 463 kts | 74° |
| 2026-05-08 09:06 | 58.24447 | 5.37795 | 37227 ft | 463 kts | 74° |
| 2026-05-08 09:06 | 58.26543 | 5.49363 | 37231 ft | 463 kts | 74° |
| 2026-05-08 09:07 | 58.28629 | 5.60952 | 37234 ft | 463 kts | 74° |
| 2026-05-08 09:07 | 58.30703 | 5.72540 | 37241 ft | 463 kts | 74° |
| 2026-05-08 09:08 | 58.32769 | 5.84141 | 37242 ft | 463 kts | 74° |
| 2026-05-08 09:08 | 58.34820 | 5.95769 | 37239 ft | 464 kts | 75° |
| 2026-05-08 09:09 | 58.36867 | 6.07422 | 37237 ft | 464 kts | 75° |
| 2026-05-08 09:09 | 58.38908 | 6.19097 | 37236 ft | 464 kts | 75° |
| 2026-05-08 09:10 | 58.40592 | 6.28803 | 37238 ft | 463 kts | 75° |
| 2026-05-08 09:10 | 58.42606 | 6.40477 | 37248 ft | 463 kts | 75° |
| 2026-05-08 09:11 | 58.44622 | 6.52248 | 37243 ft | 463 kts | 75° |
| 2026-05-08 09:11 | 58.46618 | 6.63951 | 37239 ft | 463 kts | 75° |
| 2026-05-08 09:12 | 58.48595 | 6.75643 | 37249 ft | 463 kts | 75° |
| 2026-05-08 09:12 | 58.50565 | 6.87354 | 37246 ft | 463 kts | 75° |
| 2026-05-08 09:13 | 58.52516 | 6.99040 | 37234 ft | 461 kts | 75° |
| 2026-05-08 09:13 | 58.54455 | 7.10724 | 37245 ft | 461 kts | 75° |
| 2026-05-08 09:14 | 58.56383 | 7.22429 | 37242 ft | 460 kts | 75° |
| 2026-05-08 09:14 | 58.58299 | 7.34136 | 37249 ft | 460 kts | 75° |
| 2026-05-08 09:15 | 58.60201 | 7.45853 | 37248 ft | 461 kts | 76° |
| 2026-05-08 09:15 | 58.62094 | 7.57576 | 37234 ft | 459 kts | 75° |
| 2026-05-08 09:16 | 58.63984 | 7.69351 | 37245 ft | 459 kts | 75° |
| 2026-05-08 09:16 | 58.65851 | 7.81060 | 37249 ft | 459 kts | 76° |
| 2026-05-08 09:17 | 58.67707 | 7.92788 | 37252 ft | 459 kts | 76° |
| 2026-05-08 09:17 | 58.69552 | 8.04518 | 37251 ft | 458 kts | 76° |
| 2026-05-08 09:18 | 58.71467 | 8.16223 | 37246 ft | 460 kts | 69° |
| 2026-05-08 09:18 | 58.73124 | 8.21501 | 37226 ft | 464 kts | 51° |
| 2026-05-08 09:18 | 58.75461 | 8.25783 | 37247 ft | 466 kts | 38° |
| 2026-05-08 09:19 | 58.80654 | 8.33260 | 37255 ft | 467 kts | 37° |
| 2026-05-08 09:19 | 58.85820 | 8.40886 | 37258 ft | 467 kts | 38° |
| 2026-05-08 09:20 | 58.90955 | 8.48588 | 37257 ft | 467 kts | 38° |
| 2026-05-08 09:20 | 58.96094 | 8.56302 | 37258 ft | 467 kts | 38° |
| 2026-05-08 09:21 | 59.01234 | 8.64036 | 37254 ft | 468 kts | 38° |
| 2026-05-08 09:22 | 59.16631 | 8.87462 | 34030 ft | 470 kts | 39° |
| 2026-05-08 09:23 | 59.19200 | 8.91405 | 33262 ft | 471 kts | 39° |
| 2026-05-08 09:23 | 59.21776 | 8.95358 | 32517 ft | 472 kts | 39° |
| 2026-05-08 09:23 | 59.24354 | 8.99320 | 31843 ft | 471 kts | 39° |
| 2026-05-08 09:23 | 59.26917 | 9.03268 | 31210 ft | 469 kts | 39° |
| 2026-05-08 09:24 | 59.29470 | 9.07211 | 30619 ft | 466 kts | 39° |
| 2026-05-08 09:24 | 59.32037 | 9.11183 | 30002 ft | 463 kts | 39° |
| 2026-05-08 09:24 | 59.34587 | 9.15138 | 29319 ft | 460 kts | 39° |
| 2026-05-08 09:24 | 59.37072 | 9.19004 | 28719 ft | 453 kts | 39° |
| 2026-05-08 09:25 | 59.39524 | 9.22821 | 28150 ft | 447 kts | 39° |
| 2026-05-08 09:25 | 59.41950 | 9.26600 | 27580 ft | 444 kts | 39° |
| 2026-05-08 09:25 | 59.44363 | 9.30368 | 26991 ft | 441 kts | 39° |
| 2026-05-08 09:25 | 59.46750 | 9.34108 | 26398 ft | 438 kts | 39° |
| 2026-05-08 09:26 | 59.49127 | 9.37844 | 25835 ft | 436 kts | 39° |
| 2026-05-08 09:26 | 59.51476 | 9.41584 | 25132 ft | 434 kts | 40° |
| 2026-05-08 09:26 | 59.53784 | 9.45439 | 24333 ft | 435 kts | 40° |
| 2026-05-08 09:26 | 59.56061 | 9.49256 | 23985 ft | 424 kts | 40° |
| 2026-05-08 09:27 | 59.58267 | 9.52982 | 23680 ft | 412 kts | 41° |
| 2026-05-08 09:27 | 59.60435 | 9.56662 | 23381 ft | 411 kts | 41° |
| 2026-05-08 09:27 | 59.62595 | 9.60332 | 23096 ft | 409 kts | 41° |
| 2026-05-08 09:27 | 59.64747 | 9.63996 | 22816 ft | 407 kts | 41° |
| 2026-05-08 09:28 | 59.66883 | 9.67641 | 22493 ft | 405 kts | 41° |
| 2026-05-08 09:28 | 59.69062 | 9.71370 | 21962 ft | 402 kts | 41° |
| 2026-05-08 09:28 | 59.71180 | 9.74995 | 21386 ft | 401 kts | 41° |
| 2026-05-08 09:28 | 59.73282 | 9.78600 | 20835 ft | 399 kts | 41° |
| 2026-05-08 09:29 | 59.75375 | 9.82200 | 20292 ft | 397 kts | 41° |
| 2026-05-08 09:29 | 59.77482 | 9.85823 | 19773 ft | 395 kts | 41° |
| 2026-05-08 09:29 | 59.79553 | 9.89394 | 19262 ft | 393 kts | 41° |
| 2026-05-08 09:29 | 59.81614 | 9.92955 | 18812 ft | 392 kts | 41° |
| 2026-05-08 09:30 | 59.83668 | 9.96510 | 18321 ft | 392 kts | 41° |
| 2026-05-08 09:30 | 59.85721 | 10.00073 | 17801 ft | 391 kts | 41° |
| 2026-05-08 09:30 | 59.87771 | 10.03631 | 17301 ft | 391 kts | 41° |
| 2026-05-08 09:30 | 59.89805 | 10.07170 | 16741 ft | 386 kts | 41° |
| 2026-05-08 09:31 | 59.91812 | 10.10665 | 16197 ft | 381 kts | 41° |
| 2026-05-08 09:31 | 59.93790 | 10.14111 | 15694 ft | 375 kts | 41° |
| 2026-05-08 09:31 | 59.95735 | 10.17512 | 15247 ft | 369 kts | 41° |
| 2026-05-08 09:31 | 59.97646 | 10.20857 | 14807 ft | 363 kts | 41° |
| 2026-05-08 09:32 | 59.99530 | 10.24160 | 14378 ft | 359 kts | 42° |
| 2026-05-08 09:32 | 60.01408 | 10.27458 | 13926 ft | 360 kts | 42° |
| 2026-05-08 09:32 | 60.03288 | 10.30768 | 13459 ft | 360 kts | 42° |
| 2026-05-08 09:32 | 60.05168 | 10.34084 | 13032 ft | 360 kts | 42° |
| 2026-05-08 09:33 | 60.07039 | 10.37399 | 12622 ft | 359 kts | 42° |
| 2026-05-08 09:33 | 60.08905 | 10.40703 | 12217 ft | 358 kts | 42° |
| 2026-05-08 09:33 | 60.10166 | 10.42942 | 11932 ft | 358 kts | 43° |
| 2026-05-08 09:33 | 60.12083 | 10.46343 | 11495 ft | 358 kts | 43° |
| 2026-05-08 09:34 | 60.13949 | 10.49652 | 11088 ft | 358 kts | 43° |
| 2026-05-08 09:34 | 60.15830 | 10.52992 | 10728 ft | 352 kts | 43° |
| 2026-05-08 09:34 | 60.17627 | 10.56201 | 10495 ft | 340 kts | 43° |
| 2026-05-08 09:34 | 60.19362 | 10.59299 | 10213 ft | 326 kts | 43° |
| 2026-05-08 09:35 | 60.21028 | 10.62271 | 9918 ft | 315 kts | 43° |
| 2026-05-08 09:35 | 60.22637 | 10.65139 | 9644 ft | 305 kts | 43° |
| 2026-05-08 09:35 | 60.24215 | 10.67955 | 9285 ft | 303 kts | 43° |
| 2026-05-08 09:35 | 60.25793 | 10.70786 | 8977 ft | 303 kts | 43° |
| 2026-05-08 09:36 | 60.27361 | 10.73601 | 8653 ft | 298 kts | 43° |
| 2026-05-08 09:36 | 60.28883 | 10.76333 | 8264 ft | 289 kts | 43° |
| 2026-05-08 09:36 | 60.30369 | 10.79013 | 7792 ft | 285 kts | 43° |
| 2026-05-08 09:36 | 60.31843 | 10.81675 | 7414 ft | 283 kts | 43° |
| 2026-05-08 09:37 | 60.33305 | 10.84308 | 7075 ft | 280 kts | 43° |
| 2026-05-08 09:37 | 60.34754 | 10.86928 | 6661 ft | 279 kts | 43° |
| 2026-05-08 09:37 | 60.36037 | 10.89797 | 6261 ft | 272 kts | 53° |
| 2026-05-08 09:37 | 60.37165 | 10.92765 | 6014 ft | 261 kts | 54° |
| 2026-05-08 09:38 | 60.38253 | 10.95679 | 5701 ft | 253 kts | 54° |
| 2026-05-08 09:38 | 60.39306 | 10.98517 | 5359 ft | 253 kts | 55° |
| 2026-05-08 09:38 | 60.40186 | 11.01546 | 5032 ft | 248 kts | 76° |
| 2026-05-08 09:38 | 60.40320 | 11.04916 | 4711 ft | 239 kts | 104° |
| 2026-05-08 09:39 | 60.39863 | 11.08093 | 4420 ft | 233 kts | 114° |
| 2026-05-08 09:39 | 60.39308 | 11.11169 | 4105 ft | 233 kts | 115° |
| 2026-05-08 09:39 | 60.38738 | 11.14228 | 3784 ft | 233 kts | 115° |
| 2026-05-08 09:39 | 60.38164 | 11.17263 | 3511 ft | 228 kts | 115° |
| 2026-05-08 09:40 | 60.37513 | 11.20034 | 3451 ft | 211 kts | 133° |
| 2026-05-08 09:40 | 60.36346 | 11.21589 | 3461 ft | 201 kts | 171° |
| 2026-05-08 09:40 | 60.34991 | 11.21385 | 3474 ft | 190 kts | 197° |
| 2026-05-08 09:40 | 60.33806 | 11.20508 | 3464 ft | 177 kts | 201° |
| 2026-05-08 09:41 | 60.32652 | 11.19616 | 3330 ft | 179 kts | 199° |
| 2026-05-08 09:41 | 60.31468 | 11.18834 | 3105 ft | 180 kts | 195° |
| 2026-05-08 09:41 | 60.30267 | 11.18129 | 2850 ft | 179 kts | 195° |
| 2026-05-08 09:41 | 60.29082 | 11.17439 | 2601 ft | 174 kts | 195° |
| 2026-05-08 09:42 | 60.27947 | 11.16779 | 2409 ft | 168 kts | 195° |
| 2026-05-08 09:42 | 60.26821 | 11.16125 | 2182 ft | 163 kts | 196° |
| 2026-05-08 09:42 | 60.25787 | 11.15524 | 1960 ft | 143 kts | 196° |
| 2026-05-08 09:42 | 60.24926 | 11.15024 | 1720 ft | 122 kts | 195° |
| 2026-05-08 09:43 | 60.24114 | 11.14553 | 1542 ft | 122 kts | 196° |
| 2026-05-08 09:43 | 60.23299 | 11.14082 | 1379 ft | 122 kts | 194° |
| 2026-05-08 09:43 | 60.22485 | 11.13610 | 1209 ft | 121 kts | 194° |
| 2026-05-08 09:43 | 60.21680 | 11.13135 | 1039 ft | 121 kts | 195° |
| 2026-05-08 09:44 | 60.20868 | 11.12663 | 877 ft | 122 kts | 193° |
| 2026-05-08 09:44 | 60.20056 | 11.12203 | 733 ft | 120 kts | 194° |
| 2026-05-08 09:44 | 60.19359 | 11.11815 | 690 ft | 68 kts | 197° |
| 2026-05-08 09:44 | 60.19117 | 11.11668 | 686 ft | 27 kts | 197° |
| 2026-05-08 09:45 | 60.18938 | 11.11562 | 688 ft | 15 kts | 197° |
| 2026-05-08 09:45 | 60.18889 | 11.11393 | 683 ft | 17 kts | 283° |
| 2026-05-08 09:45 | 60.18915 | 11.11207 | 690 ft | 8 kts | 295° |
| 2026-05-08 09:45 | 60.18974 | 11.11187 | 691 ft | 12 kts | 23° |
| 2026-05-08 09:46 | 60.19061 | 11.11249 | 687 ft | 8 kts | 15° |
| 2026-05-08 09:46 | 60.19063 | 11.11250 | 690 ft | 0 kts | 15° |
| 2026-05-08 09:46 | 60.19066 | 11.11252 | 689 ft | 2 kts | 15° |
| 2026-05-08 09:46 | 60.19085 | 11.11262 | 688 ft | 4 kts | 12° |
| 2026-05-08 09:47 | 60.19119 | 11.11278 | 691 ft | 6 kts | 15° |
| 2026-05-08 09:47 | 60.19168 | 11.11305 | 691 ft | 9 kts | 15° |
| 2026-05-08 09:47 | 60.19235 | 11.11344 | 686 ft | 11 kts | 17° |
| 2026-05-08 09:47 | 60.19318 | 11.11395 | 685 ft | 14 kts | 17° |
| 2026-05-08 09:48 | 60.19387 | 11.11420 | 690 ft | 6 kts | 328° |
| 2026-05-08 09:48 | 60.19408 | 11.11326 | 685 ft | 9 kts | 285° |
| 2026-05-08 09:48 | 60.19427 | 11.11181 | 686 ft | 12 kts | 285° |
| 2026-05-08 09:48 | 60.19452 | 11.10997 | 684 ft | 15 kts | 285° |
| 2026-05-08 09:49 | 60.19483 | 11.10777 | 683 ft | 18 kts | 285° |
| 2026-05-08 09:49 | 60.19513 | 11.10571 | 685 ft | 9 kts | 287° |
| 2026-05-08 09:49 | 60.19473 | 11.10496 | 680 ft | 9 kts | 202° |
| 2026-05-08 09:49 | 60.19432 | 11.10470 | 685 ft | 5 kts | 197° |
| 2026-05-08 09:50 | 60.19420 | 11.10463 | 687 ft | 0 kts | 197° |